PWSweather.com
Personal Weather Stations
Station Observations
IONTARIO88
Lincoln, ON L0R

Lincoln, ON L0R

Lat: 43.1763563, Lon: -79.4719525

Elevation: 297

Station Type: Davis Vantage Pro 2 Plus

http://www.beamsvillewx.ca

High Low Average
Temperature 58.6°F14.8°C 42.4°F5.8°C 49.5°F9.7°C
Dew Point 44.6°F7.0°C 26.8°F-2.9°C 34.0°F1.1°C
Winds 13.0 mph 20.9 kmh 5.0 mph 8.0 kmh 8.0 mph SW12.9 kmh SW
Wind Gusts 27.0 mph43.5 kmh 10.0 mph16.1 kmh 17.0 mph27.4 kmh
Humidity 78% 42% 56%
Pressure 30.02 in1016.6 mb 29.73 in1006.8 mb -
Precipitation 0.00 in0.0 mm - -
Hour Temp Dew Point Humidity Winds Wind Gusts Pressure Precip Precip Rate Daily Precip Total
12:00 AM 43.2°F6.2°C 30.6°F-0.8°C 61% 9.0 mph SW14.5 kmh SW 16.0 mph25.7 kmh 30.03 in1016.9 mb 0.00 in0.0 mm 0.00 in0.0 mm 0.00 in0.0 mm
12:15 AM 43.0°F6.1°C 30.4°F-0.9°C 61% 9.0 mph SW14.5 kmh SW 17.0 mph27.4 kmh 30.02 in1016.6 mb 0.00 in0.0 mm 0.00 in0.0 mm 0.00 in0.0 mm
12:30 AM 42.8°F6.0°C 30.3°F-0.9°C 61% 8.0 mph SW12.9 kmh SW 16.0 mph25.7 kmh 30.02 in1016.6 mb 0.00 in0.0 mm 0.00 in0.0 mm 0.00 in0.0 mm
12:45 AM 43.2°F6.2°C 30.2°F-1.0°C 60% 9.0 mph SW14.5 kmh SW 21.0 mph33.8 kmh 30.02 in1016.6 mb 0.00 in0.0 mm 0.00 in0.0 mm 0.00 in0.0 mm
01:00 AM 43.3°F6.3°C 30.0°F-1.1°C 59% 9.0 mph SW14.5 kmh SW 18.0 mph29.0 kmh 30.02 in1016.6 mb 0.00 in0.0 mm 0.00 in0.0 mm 0.00 in0.0 mm
02:15 AM 43.5°F6.4°C 28.0°F-2.2°C 54% 8.0 mph SW12.9 kmh SW 17.0 mph27.4 kmh 30.01 in1016.3 mb 0.00 in0.0 mm 0.00 in0.0 mm 0.00 in0.0 mm
02:30 AM 43.7°F6.5°C 28.1°F-2.2°C 54% 9.0 mph SW14.5 kmh SW 16.0 mph25.7 kmh 30.00 in1015.9 mb 0.00 in0.0 mm 0.00 in0.0 mm 0.00 in0.0 mm
02:45 AM 43.7°F6.5°C 27.7°F-2.4°C 53% 9.0 mph SW14.5 kmh SW 17.0 mph27.4 kmh 30.00 in1015.9 mb 0.00 in0.0 mm 0.00 in0.0 mm 0.00 in0.0 mm
03:00 AM 43.9°F6.6°C 27.4°F-2.6°C 52% 9.0 mph SW14.5 kmh SW 17.0 mph27.4 kmh 30.00 in1015.9 mb 0.00 in0.0 mm 0.00 in0.0 mm 0.00 in0.0 mm
03:15 AM 43.7°F6.5°C 27.2°F-2.7°C 52% 8.0 mph SW12.9 kmh SW 15.0 mph24.1 kmh 29.99 in1015.6 mb 0.00 in0.0 mm 0.00 in0.0 mm 0.00 in0.0 mm
03:30 AM 43.5°F6.4°C 27.5°F-2.5°C 53% 9.0 mph SW14.5 kmh SW 16.0 mph25.7 kmh 29.99 in1015.6 mb 0.00 in0.0 mm 0.00 in0.0 mm 0.00 in0.0 mm
03:45 AM 43.3°F6.3°C 27.3°F-2.6°C 53% 8.0 mph SW12.9 kmh SW 16.0 mph25.7 kmh 29.99 in1015.6 mb 0.00 in0.0 mm 0.00 in0.0 mm 0.00 in0.0 mm
04:00 AM 43.3°F6.3°C 27.3°F-2.6°C 53% 8.0 mph SW12.9 kmh SW 15.0 mph24.1 kmh 29.98 in1015.2 mb 0.00 in0.0 mm 0.00 in0.0 mm 0.00 in0.0 mm
04:15 AM 43.2°F6.2°C 27.2°F-2.7°C 53% 8.0 mph SW12.9 kmh SW 14.0 mph22.5 kmh 29.98 in1015.2 mb 0.00 in0.0 mm 0.00 in0.0 mm 0.00 in0.0 mm
04:30 AM 43.2°F6.2°C 27.2°F-2.7°C 53% 8.0 mph SW12.9 kmh SW 16.0 mph25.7 kmh 29.96 in1014.6 mb 0.00 in0.0 mm 0.00 in0.0 mm 0.00 in0.0 mm
04:45 AM 43.2°F6.2°C 27.2°F-2.7°C 53% 8.0 mph SW12.9 kmh SW 15.0 mph24.1 kmh 29.96 in1014.6 mb 0.00 in0.0 mm 0.00 in0.0 mm 0.00 in0.0 mm
05:00 AM 43.0°F6.1°C 27.0°F-2.8°C 53% 9.0 mph SW14.5 kmh SW 16.0 mph25.7 kmh 29.95 in1014.2 mb 0.00 in0.0 mm 0.00 in0.0 mm 0.00 in0.0 mm
05:15 AM 42.8°F6.0°C 26.8°F-2.9°C 53% 7.0 mph SW11.3 kmh SW 13.0 mph20.9 kmh 29.95 in1014.2 mb 0.00 in0.0 mm 0.00 in0.0 mm 0.00 in0.0 mm
05:30 AM 43.0°F6.1°C 27.0°F-2.8°C 53% 6.0 mph SW9.7 kmh SW 15.0 mph24.1 kmh 29.94 in1013.9 mb 0.00 in0.0 mm 0.00 in0.0 mm 0.00 in0.0 mm
05:45 AM 43.0°F6.1°C 27.0°F-2.8°C 53% 6.0 mph SSW9.7 kmh SSW 13.0 mph20.9 kmh 29.93 in1013.5 mb 0.00 in0.0 mm 0.00 in0.0 mm 0.00 in0.0 mm
06:00 AM 42.6°F5.9°C 27.1°F-2.7°C 54% 6.0 mph SSW9.7 kmh SSW 12.0 mph19.3 kmh 29.93 in1013.5 mb 0.00 in0.0 mm 0.00 in0.0 mm 0.00 in0.0 mm
06:15 AM 42.4°F5.8°C 27.4°F-2.6°C 55% 6.0 mph SSW9.7 kmh SSW 15.0 mph24.1 kmh 29.93 in1013.5 mb 0.00 in0.0 mm 0.00 in0.0 mm 0.00 in0.0 mm
06:30 AM 42.4°F5.8°C 27.4°F-2.6°C 55% 5.0 mph SSW8.0 kmh SSW 14.0 mph22.5 kmh 29.91 in1012.9 mb 0.00 in0.0 mm 0.00 in0.0 mm 0.00 in0.0 mm
06:45 AM 42.6°F5.9°C 27.6°F-2.4°C 55% 6.0 mph SSW9.7 kmh SSW 12.0 mph19.3 kmh 29.91 in1012.9 mb 0.00 in0.0 mm 0.00 in0.0 mm 0.00 in0.0 mm
07:00 AM 42.6°F5.9°C 28.0°F-2.2°C 56% 5.0 mph SSW8.0 kmh SSW 12.0 mph19.3 kmh 29.91 in1012.9 mb 0.00 in0.0 mm 0.00 in0.0 mm 0.00 in0.0 mm
07:15 AM 42.4°F5.8°C 27.8°F-2.3°C 56% 6.0 mph SSW9.7 kmh SSW 12.0 mph19.3 kmh 29.90 in1012.5 mb 0.00 in0.0 mm 0.00 in0.0 mm 0.00 in0.0 mm
07:30 AM 42.8°F6.0°C 27.7°F-2.4°C 55% 5.0 mph SSW8.0 kmh SSW 10.0 mph16.1 kmh 29.90 in1012.5 mb 0.00 in0.0 mm 0.00 in0.0 mm 0.00 in0.0 mm
07:45 AM 43.2°F6.2°C 27.6°F-2.4°C 54% 5.0 mph SSW8.0 kmh SSW 12.0 mph19.3 kmh 29.90 in1012.5 mb 0.00 in0.0 mm 0.00 in0.0 mm 0.00 in0.0 mm
08:00 AM 43.5°F6.4°C 27.5°F-2.5°C 53% 6.0 mph SSW9.7 kmh SSW 15.0 mph24.1 kmh 29.88 in1011.9 mb 0.00 in0.0 mm 0.00 in0.0 mm 0.00 in0.0 mm
08:15 AM 43.9°F6.6°C 27.8°F-2.3°C 53% 6.0 mph SSW9.7 kmh SSW 13.0 mph20.9 kmh 29.88 in1011.9 mb 0.00 in0.0 mm 0.00 in0.0 mm 0.00 in0.0 mm
08:30 AM 43.9°F6.6°C 27.8°F-2.3°C 53% 6.0 mph SSW9.7 kmh SSW 17.0 mph27.4 kmh 29.88 in1011.9 mb 0.00 in0.0 mm 0.00 in0.0 mm 0.00 in0.0 mm
08:45 AM 43.9°F6.6°C 27.8°F-2.3°C 53% 6.0 mph SSW9.7 kmh SSW 15.0 mph24.1 kmh 29.88 in1011.9 mb 0.00 in0.0 mm 0.00 in0.0 mm 0.00 in0.0 mm
09:00 AM 44.1°F6.7°C 28.5°F-1.9°C 54% 5.0 mph SSW8.0 kmh SSW 13.0 mph20.9 kmh 29.88 in1011.9 mb 0.00 in0.0 mm 0.00 in0.0 mm 0.00 in0.0 mm
09:15 AM 44.2°F6.8°C 28.2°F-2.1°C 53% 6.0 mph SSW9.7 kmh SSW 14.0 mph22.5 kmh 29.87 in1011.5 mb 0.00 in0.0 mm 0.00 in0.0 mm 0.00 in0.0 mm
09:30 AM 45.0°F7.2°C 28.4°F-2.0°C 52% 5.0 mph SSW8.0 kmh SSW 13.0 mph20.9 kmh 29.86 in1011.2 mb 0.00 in0.0 mm 0.00 in0.0 mm 0.00 in0.0 mm
09:45 AM 45.3°F7.4°C 28.2°F-2.1°C 51% 6.0 mph SSW9.7 kmh SSW 16.0 mph25.7 kmh 29.85 in1010.8 mb 0.00 in0.0 mm 0.00 in0.0 mm 0.00 in0.0 mm
10:00 AM 46.0°F7.8°C 28.4°F-2.0°C 50% 7.0 mph SSW11.3 kmh SSW 16.0 mph25.7 kmh 29.85 in1010.8 mb 0.00 in0.0 mm 0.00 in0.0 mm 0.00 in0.0 mm
10:15 AM 47.1°F8.4°C 28.9°F-1.7°C 49% 7.0 mph SSW11.3 kmh SSW 16.0 mph25.7 kmh 29.84 in1010.5 mb 0.00 in0.0 mm 0.00 in0.0 mm 0.00 in0.0 mm
10:30 AM 48.4°F9.1°C 29.6°F-1.3°C 48% 8.0 mph SSW12.9 kmh SSW 16.0 mph25.7 kmh 29.84 in1010.5 mb 0.00 in0.0 mm 0.00 in0.0 mm 0.00 in0.0 mm
10:45 AM 50.2°F10.1°C 29.6°F-1.3°C 45% 10.0 mph SW16.1 kmh SW 22.0 mph35.4 kmh 29.83 in1010.2 mb 0.00 in0.0 mm 0.00 in0.0 mm 0.00 in0.0 mm
11:00 AM 52.2°F11.2°C 31.4°F-0.3°C 45% 8.0 mph SW12.9 kmh SW 21.0 mph33.8 kmh 29.83 in1010.2 mb 0.00 in0.0 mm 0.00 in0.0 mm 0.00 in0.0 mm
11:15 AM 51.8°F11.0°C 30.0°F-1.1°C 43% 10.0 mph SW16.1 kmh SW 21.0 mph33.8 kmh 29.82 in1009.8 mb 0.00 in0.0 mm 0.00 in0.0 mm 0.00 in0.0 mm
11:30 AM 52.0°F11.1°C 31.8°F-0.1°C 46% 7.0 mph SW11.3 kmh SW 19.0 mph30.6 kmh 29.82 in1009.8 mb 0.00 in0.0 mm 0.00 in0.0 mm 0.00 in0.0 mm
11:45 AM 54.0°F12.2°C 32.5°F0.3°C 44% 10.0 mph SW16.1 kmh SW 20.0 mph32.2 kmh 29.80 in1009.1 mb 0.00 in0.0 mm 0.00 in0.0 mm 0.00 in0.0 mm
12:00 PM 55.8°F13.2°C 33.0°F0.6°C 42% 10.0 mph SW16.1 kmh SW 20.0 mph32.2 kmh 29.80 in1009.1 mb 0.00 in0.0 mm 0.00 in0.0 mm 0.00 in0.0 mm
12:15 PM 56.7°F13.7°C 33.8°F1.0°C 42% 10.0 mph SW16.1 kmh SW 21.0 mph33.8 kmh 29.79 in1008.8 mb 0.00 in0.0 mm 0.00 in0.0 mm 0.00 in0.0 mm
12:30 PM 57.0°F13.9°C 34.7°F1.5°C 43% 11.0 mph SW17.7 kmh SW 24.0 mph38.6 kmh 29.79 in1008.8 mb 0.00 in0.0 mm 0.00 in0.0 mm 0.00 in0.0 mm
12:45 PM 56.8°F13.8°C 34.6°F1.4°C 43% 13.0 mph SW20.9 kmh SW 25.0 mph40.2 kmh 29.79 in1008.8 mb 0.00 in0.0 mm 0.00 in0.0 mm 0.00 in0.0 mm
01:00 PM 57.4°F14.1°C 35.6°F2.0°C 44% 11.0 mph SW17.7 kmh SW 21.0 mph33.8 kmh 29.79 in1008.8 mb 0.00 in0.0 mm 0.00 in0.0 mm 0.00 in0.0 mm
01:15 PM 56.7°F13.7°C 35.5°F1.9°C 45% 11.0 mph SW17.7 kmh SW 22.0 mph35.4 kmh 29.78 in1008.5 mb 0.00 in0.0 mm 0.00 in0.0 mm 0.00 in0.0 mm
01:30 PM 58.5°F14.7°C 37.2°F2.9°C 45% 9.0 mph SW14.5 kmh SW 19.0 mph30.6 kmh 29.77 in1008.1 mb 0.00 in0.0 mm 0.00 in0.0 mm 0.00 in0.0 mm
01:45 PM 58.6°F14.8°C 37.9°F3.3°C 46% 10.0 mph SW16.1 kmh SW 20.0 mph32.2 kmh 29.77 in1008.1 mb 0.00 in0.0 mm 0.00 in0.0 mm 0.00 in0.0 mm
02:00 PM 58.6°F14.8°C 37.9°F3.3°C 46% 10.0 mph SW16.1 kmh SW 22.0 mph35.4 kmh 29.76 in1007.8 mb 0.00 in0.0 mm 0.00 in0.0 mm 0.00 in0.0 mm
02:15 PM 58.3°F14.6°C 38.7°F3.7°C 48% 9.0 mph SW14.5 kmh SW 20.0 mph32.2 kmh 29.76 in1007.8 mb 0.00 in0.0 mm 0.00 in0.0 mm 0.00 in0.0 mm
02:30 PM 57.6°F14.2°C 40.1°F4.5°C 52% 9.0 mph WSW14.5 kmh WSW 23.0 mph37.0 kmh 29.76 in1007.8 mb 0.00 in0.0 mm 0.00 in0.0 mm 0.00 in0.0 mm
02:45 PM 57.0°F13.9°C 40.5°F4.7°C 54% 10.0 mph WSW16.1 kmh WSW 23.0 mph37.0 kmh 29.75 in1007.5 mb 0.00 in0.0 mm 0.00 in0.0 mm 0.00 in0.0 mm
03:00 PM 55.0°F12.8°C 42.7°F5.9°C 63% 12.0 mph SW19.3 kmh SW 23.0 mph37.0 kmh 29.75 in1007.5 mb 0.00 in0.0 mm 0.00 in0.0 mm 0.00 in0.0 mm
03:15 PM 55.6°F13.1°C 43.6°F6.4°C 64% 10.0 mph SW16.1 kmh SW 22.0 mph35.4 kmh 29.74 in1007.1 mb 0.00 in0.0 mm 0.00 in0.0 mm 0.00 in0.0 mm
03:30 PM 56.3°F13.5°C 43.9°F6.6°C 63% 11.0 mph SW17.7 kmh SW 22.0 mph35.4 kmh 29.74 in1007.1 mb 0.00 in0.0 mm 0.00 in0.0 mm 0.00 in0.0 mm
03:45 PM 57.0°F13.9°C 44.1°F6.7°C 62% 12.0 mph SW19.3 kmh SW 27.0 mph43.5 kmh 29.73 in1006.8 mb 0.00 in0.0 mm 0.00 in0.0 mm 0.00 in0.0 mm
04:00 PM 57.6°F14.2°C 44.6°F7.0°C 62% 10.0 mph SW16.1 kmh SW 19.0 mph30.6 kmh 29.73 in1006.8 mb 0.00 in0.0 mm 0.00 in0.0 mm 0.00 in0.0 mm
04:15 PM 56.7°F13.7°C 44.2°F6.8°C 63% 10.0 mph SW16.1 kmh SW 22.0 mph35.4 kmh 29.73 in1006.8 mb 0.00 in0.0 mm 0.00 in0.0 mm 0.00 in0.0 mm
04:30 PM 55.6°F13.1°C 44.0°F6.7°C 65% 10.0 mph SW16.1 kmh SW 22.0 mph35.4 kmh 29.73 in1006.8 mb 0.00 in0.0 mm 0.00 in0.0 mm 0.00 in0.0 mm
04:45 PM 55.0°F12.8°C 43.9°F6.6°C 66% 10.0 mph SW16.1 kmh SW 22.0 mph35.4 kmh 29.74 in1007.1 mb 0.00 in0.0 mm 0.00 in0.0 mm 0.00 in0.0 mm
05:00 PM 55.8°F13.2°C 44.6°F7.0°C 66% 7.0 mph SW11.3 kmh SW 17.0 mph27.4 kmh 29.75 in1007.5 mb 0.00 in0.0 mm 0.00 in0.0 mm 0.00 in0.0 mm
05:15 PM 55.6°F13.1°C 44.4°F6.9°C 66% 9.0 mph SW14.5 kmh SW 20.0 mph32.2 kmh 29.74 in1007.1 mb 0.00 in0.0 mm 0.00 in0.0 mm 0.00 in0.0 mm
05:30 PM 55.2°F12.9°C 44.1°F6.7°C 66% 8.0 mph SW12.9 kmh SW 17.0 mph27.4 kmh 29.75 in1007.5 mb 0.00 in0.0 mm 0.00 in0.0 mm 0.00 in0.0 mm
05:45 PM 54.9°F12.7°C 44.1°F6.7°C 67% 8.0 mph SW12.9 kmh SW 17.0 mph27.4 kmh 29.74 in1007.1 mb 0.00 in0.0 mm 0.00 in0.0 mm 0.00 in0.0 mm
06:00 PM 54.7°F12.6°C 44.3°F6.8°C 68% 7.0 mph SW11.3 kmh SW 14.0 mph22.5 kmh 29.75 in1007.5 mb 0.00 in0.0 mm 0.00 in0.0 mm 0.00 in0.0 mm
06:15 PM 54.0°F12.2°C 44.4°F6.9°C 70% 8.0 mph SW12.9 kmh SW 17.0 mph27.4 kmh 29.76 in1007.8 mb 0.00 in0.0 mm 0.00 in0.0 mm 0.00 in0.0 mm
06:30 PM 52.5°F11.4°C 43.8°F6.6°C 72% 8.0 mph SW12.9 kmh SW 15.0 mph24.1 kmh 29.77 in1008.1 mb 0.00 in0.0 mm 0.00 in0.0 mm 0.00 in0.0 mm
06:45 PM 52.0°F11.1°C 43.9°F6.6°C 74% 7.0 mph SW11.3 kmh SW 17.0 mph27.4 kmh 29.77 in1008.1 mb 0.00 in0.0 mm 0.00 in0.0 mm 0.00 in0.0 mm
07:00 PM 51.3°F10.7°C 44.0°F6.7°C 76% 6.0 mph SW9.7 kmh SW 16.0 mph25.7 kmh 29.78 in1008.5 mb 0.00 in0.0 mm 0.00 in0.0 mm 0.00 in0.0 mm
07:15 PM 50.7°F10.4°C 43.8°F6.6°C 77% 7.0 mph SW11.3 kmh SW 16.0 mph25.7 kmh 29.79 in1008.8 mb 0.00 in0.0 mm 0.00 in0.0 mm 0.00 in0.0 mm
07:30 PM 50.5°F10.3°C 43.6°F6.4°C 77% 8.0 mph SW12.9 kmh SW 15.0 mph24.1 kmh 29.79 in1008.8 mb 0.00 in0.0 mm 0.00 in0.0 mm 0.00 in0.0 mm
07:45 PM 50.0°F10.0°C 43.4°F6.3°C 78% 5.0 mph SW8.0 kmh SW 13.0 mph20.9 kmh 29.79 in1008.8 mb 0.00 in0.0 mm 0.00 in0.0 mm 0.00 in0.0 mm
08:00 PM 49.8°F9.9°C 43.6°F6.4°C 79% 5.0 mph SW8.0 kmh SW 11.0 mph17.7 kmh 29.80 in1009.1 mb 0.00 in0.0 mm 0.00 in0.0 mm 0.00 in0.0 mm
08:30 PM 49.6°F9.8°C 43.4°F6.3°C 79% 3.0 mph SW4.8 kmh SW 9.0 mph14.5 kmh 29.82 in1009.8 mb 0.00 in0.0 mm 0.00 in0.0 mm 0.00 in0.0 mm
08:45 PM 49.6°F9.8°C 43.7°F6.5°C 80% 3.0 mph SW4.8 kmh SW 9.0 mph14.5 kmh 29.82 in1009.8 mb 0.00 in0.0 mm 0.00 in0.0 mm 0.00 in0.0 mm
09:00 PM 49.6°F9.8°C 44.0°F6.7°C 81% 1.0 mph W1.6 kmh W 6.0 mph9.7 kmh 29.83 in1010.2 mb 0.00 in0.0 mm 0.00 in0.0 mm 0.00 in0.0 mm
09:15 PM 50.0°F10.0°C 44.4°F6.9°C 81% 1.0 mph W1.6 kmh W 4.0 mph6.4 kmh 29.83 in1010.2 mb 0.00 in0.0 mm 0.00 in0.0 mm 0.00 in0.0 mm
09:30 PM 50.2°F10.1°C 44.6°F7.0°C 81% Calm Calm 3.0 mph4.8 kmh 29.83 in1010.2 mb 0.00 in0.0 mm 0.00 in0.0 mm 0.00 in0.0 mm
09:45 PM 49.6°F9.8°C 42.4°F5.8°C 76% 2.0 mph N3.2 kmh N 11.0 mph17.7 kmh 29.85 in1010.8 mb 0.00 in0.0 mm 0.00 in0.0 mm 0.00 in0.0 mm
10:00 PM 46.2°F7.9°C 38.0°F3.3°C 73% 3.0 mph N4.8 kmh N 7.0 mph11.3 kmh 29.85 in1010.8 mb 0.00 in0.0 mm 0.00 in0.0 mm 0.00 in0.0 mm
10:15 PM 45.0°F7.2°C 37.5°F3.1°C 75% 1.0 mph N1.6 kmh N 5.0 mph8.0 kmh 29.86 in1011.2 mb 0.00 in0.0 mm 0.00 in0.0 mm 0.00 in0.0 mm
10:30 PM 44.4°F6.9°C 37.0°F2.8°C 75% 1.0 mph N1.6 kmh N 7.0 mph11.3 kmh 29.86 in1011.2 mb 0.00 in0.0 mm 0.00 in0.0 mm 0.00 in0.0 mm
10:45 PM 43.5°F6.4°C 36.5°F2.5°C 76% 1.0 mph N1.6 kmh N 7.0 mph11.3 kmh 29.87 in1011.5 mb 0.00 in0.0 mm 0.00 in0.0 mm 0.00 in0.0 mm
11:00 PM 42.6°F5.9°C 36.2°F2.3°C 78% 2.0 mph N3.2 kmh N 5.0 mph8.0 kmh 29.88 in1011.9 mb 0.00 in0.0 mm 0.00 in0.0 mm 0.00 in0.0 mm
11:15 PM 42.3°F5.7°C 35.9°F2.2°C 78% 5.0 mph N8.0 kmh N 9.0 mph14.5 kmh 29.88 in1011.9 mb 0.00 in0.0 mm 0.00 in0.0 mm 0.00 in0.0 mm
11:30 PM 41.4°F5.2°C 35.7°F2.1°C 80% 3.0 mph N4.8 kmh N 7.0 mph11.3 kmh 29.88 in1011.9 mb 0.00 in0.0 mm 0.00 in0.0 mm 0.00 in0.0 mm
11:45 PM 39.7°F4.3°C 34.7°F1.5°C 82% 6.0 mph N9.7 kmh N 10.0 mph16.1 kmh 29.90 in1012.5 mb 0.00 in0.0 mm 0.00 in0.0 mm 0.00 in0.0 mm